createdAt,value
2022-08-22T00:02:53.534Z,10.00
2022-08-22T00:02:56.067Z,9.02
2022-08-22T00:03:06.551Z,12.38
2022-08-22T00:03:15.813Z,9.57
2022-08-22T00:06:06.305Z,9.50
2022-08-22T00:08:57.360Z,10.40
2022-08-22T00:11:49.825Z,10.43
2022-08-22T00:14:38.870Z,9.82
2022-08-22T00:17:36.505Z,10.32
2022-08-22T00:20:17.200Z,10.80
2022-08-22T00:22:58.985Z,9.80
2022-08-22T00:25:51.069Z,9.75
2022-08-22T00:28:32.528Z,9.95
2022-08-22T00:31:19.918Z,11.00
2022-08-22T00:34:01.781Z,10.35
2022-08-22T00:36:40.931Z,10.43
2022-08-22T00:39:21.584Z,10.27
2022-08-22T00:42:32.383Z,10.23
2022-08-22T00:45:43.920Z,11.60
2022-08-22T00:48:35.974Z,10.30
2022-08-22T00:51:40.988Z,11.38
2022-08-22T00:54:32.345Z,11.02
2022-08-22T00:57:44.540Z,9.88
2022-08-22T01:00:28.282Z,10.43
2022-08-22T01:03:21.324Z,11.13
2022-08-22T01:06:11.667Z,10.75
2022-08-22T01:09:00.170Z,10.52
2022-08-22T01:12:16.846Z,10.88
2022-08-22T01:15:00.049Z,10.45
2022-08-22T01:18:03.838Z,11.43
2022-08-22T01:21:24.198Z,10.50
2022-08-22T01:25:05.971Z,10.85
2022-08-22T01:28:07.594Z,12.15
2022-08-22T01:31:29.978Z,11.77
2022-08-22T01:34:40.205Z,13.55
2022-08-22T01:37:58.666Z,12.02
2022-08-22T01:41:06.426Z,12.35
2022-08-22T01:44:10.814Z,12.90
2022-08-22T01:46:59.907Z,13.48
2022-08-22T01:49:41.274Z,11.88
2022-08-22T01:52:22.353Z,13.52
2022-08-22T01:55:02.965Z,11.90
2022-08-22T01:57:51.437Z,13.00
2022-08-22T02:00:35.064Z,11.80
2022-08-22T02:03:25.191Z,13.48
2022-08-22T02:06:08.632Z,12.63
2022-08-22T02:08:54.972Z,11.40
2022-08-22T02:11:41.823Z,12.00
2022-08-22T02:14:30.211Z,11.68
2022-08-22T02:17:15.990Z,11.45
2022-08-22T02:19:59.461Z,11.95
2022-08-22T02:22:57.061Z,11.60
2022-08-22T02:25:36.263Z,11.70
2022-08-22T02:28:13.986Z,10.85
2022-08-22T02:30:54.438Z,11.80
2022-08-22T02:33:50.001Z,11.98
2022-08-22T02:36:37.799Z,11.77
2022-08-22T02:39:26.410Z,10.63
2022-08-22T02:42:08.143Z,10.32
2022-08-22T02:44:49.654Z,10.07
2022-08-22T02:47:33.274Z,10.32
2022-08-22T02:53:06.680Z,10.02
2022-08-22T02:55:54.090Z,9.82
2022-08-22T02:58:38.782Z,9.52
2022-08-22T03:01:36.982Z,10.10
2022-08-22T03:04:37.455Z,10.02
2022-08-22T03:07:24.537Z,9.88
2022-08-22T03:10:04.913Z,9.60
2022-08-22T03:12:56.965Z,9.93
2022-08-22T03:15:38.022Z,10.52
2022-08-22T03:21:20.463Z,11.93
2022-08-22T03:24:02.662Z,10.35
2022-08-22T03:26:46.406Z,10.32
2022-08-22T03:29:26.191Z,10.85
2022-08-22T03:32:12.896Z,10.38
2022-08-22T03:34:59.175Z,10.52
2022-08-22T03:37:42.866Z,10.25
2022-08-22T03:43:27.174Z,10.27
2022-08-22T03:46:42.682Z,11.60
2022-08-22T03:50:15.164Z,10.68
2022-08-22T03:53:30.181Z,10.80
2022-08-22T03:57:06.652Z,10.20
2022-08-22T04:00:19.758Z,9.80
2022-08-22T04:03:30.785Z,9.82
2022-08-22T04:06:39.191Z,10.43
2022-08-22T04:09:55.058Z,11.52
2022-08-22T04:12:59.172Z,10.13
2022-08-22T04:15:57.386Z,10.13
2022-08-22T04:19:15.467Z,9.77
2022-08-22T04:22:15.276Z,10.05
2022-08-22T04:25:02.645Z,10.60
2022-08-22T04:27:45.124Z,9.98
2022-08-22T04:30:31.585Z,10.07
2022-08-22T04:33:15.038Z,10.40
2022-08-22T04:36:02.841Z,10.57
2022-08-22T04:38:42.970Z,9.65
2022-08-22T04:41:22.210Z,9.80
2022-08-22T04:44:00.774Z,10.93
2022-08-22T04:46:47.492Z,9.85
2022-08-22T04:49:28.148Z,9.35
2022-08-22T04:52:18.531Z,9.88
2022-08-22T04:55:04.650Z,9.77
2022-08-22T04:58:00.003Z,9.82
2022-08-22T05:00:51.803Z,8.95
2022-08-22T05:03:28.917Z,9.00
2022-08-22T05:06:06.266Z,9.23
2022-08-22T05:08:46.146Z,8.88
2022-08-22T05:11:29.676Z,8.82
2022-08-22T05:14:08.454Z,8.77
2022-08-22T05:16:47.392Z,9.98
2022-08-22T05:19:31.684Z,9.52
2022-08-22T05:22:08.048Z,8.38
2022-08-22T05:24:49.096Z,9.30
2022-08-22T05:27:26.522Z,9.35
2022-08-22T05:30:03.525Z,7.97
2022-08-22T05:32:46.897Z,9.18
2022-08-22T05:35:26.981Z,8.13
2022-08-22T05:38:01.419Z,8.50
2022-08-22T05:40:40.675Z,9.70
2022-08-22T05:43:14.567Z,9.25
2022-08-22T05:45:49.459Z,8.50
2022-08-22T05:48:31.775Z,8.15
2022-08-22T05:51:16.268Z,8.25
2022-08-22T05:54:04.426Z,8.52
2022-08-22T05:56:44.018Z,8.38
2022-08-22T05:59:24.978Z,8.60
2022-08-22T06:02:07.409Z,8.13
2022-08-22T06:04:50.241Z,7.25
2022-08-22T06:07:29.504Z,8.68
2022-08-22T06:10:21.297Z,8.23
2022-08-22T06:13:11.365Z,8.52
2022-08-22T06:15:53.147Z,7.35
2022-08-22T06:18:29.443Z,7.97
2022-08-22T06:21:06.120Z,7.25
2022-08-22T06:23:45.879Z,7.40
2022-08-22T06:26:21.550Z,8.55
2022-08-22T06:29:00.957Z,7.63
2022-08-22T06:31:37.987Z,7.78
2022-08-22T06:34:15.430Z,7.13
2022-08-22T06:36:51.576Z,7.70
2022-08-22T06:39:28.280Z,7.45
2022-08-22T06:42:05.929Z,7.72
2022-08-22T06:44:45.733Z,8.27
2022-08-22T06:47:23.744Z,8.05
2022-08-22T06:50:03.179Z,7.95
2022-08-22T06:52:54.908Z,7.32
2022-08-22T06:55:31.440Z,7.10
2022-08-22T06:58:07.699Z,7.60
2022-08-22T07:00:51.106Z,6.75
2022-08-22T07:03:42.354Z,7.53
2022-08-22T07:06:18.763Z,6.97
2022-08-22T07:08:57.794Z,7.68
2022-08-22T07:11:34.328Z,7.35
2022-08-22T07:14:11.406Z,8.32
2022-08-22T07:16:50.015Z,7.68
2022-08-22T07:19:26.517Z,7.18
2022-08-22T07:22:11.246Z,6.68
2022-08-22T07:24:49.612Z,6.95
2022-08-22T07:27:32.340Z,6.82
2022-08-22T07:30:10.852Z,7.03
2022-08-22T07:32:55.485Z,6.88
2022-08-22T07:35:37.589Z,6.63
2022-08-22T07:38:27.507Z,7.13
2022-08-22T07:41:11.580Z,6.45
2022-08-22T07:43:50.531Z,6.35
2022-08-22T07:46:33.275Z,6.97
2022-08-22T07:49:16.660Z,7.43
2022-08-22T07:51:54.339Z,7.32
2022-08-22T07:54:39.332Z,6.80
2022-08-22T07:57:17.589Z,6.65
2022-08-22T07:59:55.108Z,6.40
2022-08-22T08:02:29.983Z,7.53
2022-08-22T08:05:05.643Z,7.22
2022-08-22T08:07:44.854Z,7.57
2022-08-22T08:10:24.564Z,6.95
2022-08-22T08:13:04.294Z,7.22
2022-08-22T08:15:40.244Z,6.90
2022-08-22T08:18:22.218Z,6.80
2022-08-22T08:21:02.240Z,7.27
2022-08-22T08:23:41.634Z,6.95
2022-08-22T08:26:18.649Z,6.75
2022-08-22T08:28:54.512Z,5.95
2022-08-22T08:31:32.897Z,7.13
2022-08-22T08:34:10.624Z,6.93
2022-08-22T08:36:52.712Z,6.00
2022-08-22T08:39:35.305Z,6.60
2022-08-22T08:43:03.480Z,5.90
2022-08-22T08:46:19.912Z,6.72
2022-08-22T08:49:29.676Z,6.55
2022-08-22T08:52:32.496Z,6.63
2022-08-22T08:55:22.571Z,5.65
2022-08-22T08:58:10.147Z,6.55
2022-08-22T09:00:57.591Z,5.53
2022-08-22T09:04:04.341Z,6.47
2022-08-22T09:06:59.342Z,6.28
2022-08-22T09:09:52.724Z,6.00
2022-08-22T09:13:11.794Z,6.05
2022-08-22T09:19:12.979Z,5.72
2022-08-22T09:22:14.197Z,5.63
2022-08-22T09:25:23.633Z,7.03
2022-08-22T09:28:02.715Z,6.15
2022-08-22T09:30:54.491Z,6.00
2022-08-22T09:33:39.603Z,5.82
2022-08-22T09:36:21.086Z,5.50
2022-08-22T09:38:59.909Z,5.28
2022-08-22T09:41:47.123Z,5.68
2022-08-22T09:44:39.673Z,6.03
2022-08-22T09:47:24.933Z,6.35
2022-08-22T09:50:12.638Z,6.47
2022-08-22T09:53:01.998Z,5.93
2022-08-22T09:55:45.846Z,6.57
2022-08-22T09:58:28.385Z,6.32
2022-08-22T10:01:09.682Z,7.07
2022-08-22T10:04:20.031Z,6.72
2022-08-22T10:07:00.780Z,6.90
2022-08-22T10:09:47.597Z,7.13
2022-08-22T10:12:36.215Z,5.93
2022-08-22T10:15:22.471Z,7.60
2022-08-22T10:18:12.371Z,7.20
2022-08-22T10:20:57.658Z,7.35
2022-08-22T10:23:38.712Z,7.22
2022-08-22T10:29:28.514Z,7.53
2022-08-22T10:32:17.076Z,7.50
2022-08-22T10:34:56.699Z,7.28
2022-08-22T10:37:36.744Z,6.90
2022-08-22T10:40:17.979Z,7.60
2022-08-22T10:42:55.342Z,7.05
2022-08-22T10:45:37.297Z,6.90
2022-08-22T10:48:41.157Z,6.25
2022-08-22T10:51:24.800Z,6.75
2022-08-22T10:54:20.043Z,6.78
2022-08-22T10:57:03.802Z,6.32
2022-08-22T10:59:46.081Z,6.43
2022-08-22T11:02:45.926Z,6.28
2022-08-22T11:05:31.218Z,5.80
2022-08-22T11:08:37.187Z,5.82
2022-08-22T11:11:21.856Z,5.43
2022-08-22T11:14:16.584Z,6.68
2022-08-22T11:16:59.794Z,5.88
2022-08-22T11:19:55.780Z,6.10
2022-08-22T11:22:36.723Z,6.68
2022-08-22T11:25:35.837Z,6.05
2022-08-22T11:28:30.690Z,5.93
2022-08-22T11:31:16.448Z,5.60
2022-08-22T11:33:56.721Z,4.47
2022-08-22T11:36:38.345Z,5.75
2022-08-22T11:39:25.189Z,4.85
2022-08-22T11:42:06.985Z,5.03
2022-08-22T11:44:50.141Z,4.97
2022-08-22T11:47:28.991Z,5.13
2022-08-22T11:50:13.906Z,5.75
2022-08-22T11:53:20.098Z,6.40
2022-08-22T11:56:12.348Z,5.85
2022-08-22T11:58:56.594Z,5.53
2022-08-22T12:01:39.004Z,5.35
2022-08-22T12:04:21.622Z,5.47
2022-08-22T12:07:03.200Z,5.20
2022-08-22T12:09:50.853Z,4.70
2022-08-22T12:12:53.118Z,9.93
2022-08-22T12:15:33.861Z,4.80
2022-08-22T12:18:41.681Z,4.95
2022-08-22T12:21:38.769Z,4.95
2022-08-22T12:24:32.469Z,5.13
2022-08-22T12:27:48.292Z,5.28
2022-08-22T12:30:38.053Z,4.95
2022-08-22T12:33:37.631Z,5.22
2022-08-22T12:36:51.199Z,4.70
2022-08-22T12:39:44.302Z,5.63
2022-08-22T12:42:47.395Z,5.80
2022-08-22T12:45:47.358Z,5.20
2022-08-22T12:48:41.819Z,5.70
2022-08-22T12:51:31.610Z,5.82
2022-08-22T12:54:44.803Z,5.55
2022-08-22T12:57:28.887Z,5.45
2022-08-22T13:00:26.797Z,6.05
2022-08-22T13:03:09.685Z,6.45
2022-08-22T13:05:56.248Z,5.22
2022-08-22T13:08:37.293Z,6.00
2022-08-22T13:11:23.364Z,6.55
2022-08-22T13:14:00.596Z,7.38
2022-08-22T13:16:39.133Z,5.78
2022-08-22T13:19:24.006Z,6.15
2022-08-22T13:22:05.425Z,6.00
2022-08-22T13:24:52.529Z,6.32
2022-08-22T13:27:33.788Z,6.47
2022-08-22T13:30:18.645Z,5.63
2022-08-22T13:32:54.566Z,6.63
2022-08-22T13:35:37.286Z,6.38
2022-08-22T13:38:25.622Z,6.32
2022-08-22T13:41:03.408Z,7.38
2022-08-22T13:43:55.948Z,6.20
2022-08-22T13:46:31.529Z,6.65
2022-08-22T13:49:13.638Z,6.30
2022-08-22T13:51:58.459Z,6.40
2022-08-22T13:54:58.997Z,6.65
2022-08-22T13:57:38.125Z,6.13
2022-08-22T14:00:56.523Z,6.25
2022-08-22T14:03:41.138Z,6.20
2022-08-22T14:09:29.462Z,6.65
2022-08-22T14:12:12.541Z,6.05
2022-08-22T14:14:52.384Z,5.63
2022-08-22T14:17:32.224Z,5.50
2022-08-22T14:20:13.215Z,5.45
2022-08-22T14:23:12.285Z,5.55
2022-08-22T14:25:49.187Z,6.03
2022-08-22T14:28:27.439Z,5.22
2022-08-22T14:31:08.214Z,5.30
2022-08-22T14:33:48.366Z,6.00
2022-08-22T14:36:27.339Z,5.68
2022-08-22T14:39:08.437Z,7.30
2022-08-22T14:41:56.602Z,6.20
2022-08-22T14:44:39.538Z,5.93
2022-08-22T14:47:32.589Z,5.88
2022-08-22T14:50:40.343Z,5.53
2022-08-22T14:53:26.631Z,5.63
2022-08-22T14:56:04.631Z,5.35
2022-08-22T14:58:51.141Z,5.45
2022-08-22T15:01:26.514Z,5.15
2022-08-22T15:04:07.382Z,5.93
2022-08-22T15:06:48.273Z,6.03
2022-08-22T15:09:36.571Z,6.18
2022-08-22T15:12:25.446Z,5.68
2022-08-22T15:15:04.719Z,6.05
2022-08-22T15:17:44.067Z,5.82
2022-08-22T15:20:35.268Z,5.50
2022-08-22T15:23:20.903Z,5.07
2022-08-22T15:26:02.066Z,5.70
2022-08-22T15:28:52.655Z,6.20
2022-08-22T15:31:28.852Z,5.55
2022-08-22T15:34:14.026Z,5.75
2022-08-22T15:37:08.471Z,6.22
2022-08-22T15:40:11.999Z,7.18
2022-08-22T15:42:48.838Z,7.82
2022-08-22T15:45:34.020Z,6.57
2022-08-22T15:48:27.429Z,6.95
2022-08-22T15:51:09.912Z,6.68
2022-08-22T15:54:16.386Z,6.68
2022-08-22T15:57:16.641Z,7.15
2022-08-22T15:59:57.820Z,7.90
2022-08-22T16:02:35.718Z,7.43
2022-08-22T16:05:29.077Z,6.20
2022-08-22T16:08:06.241Z,7.95
2022-08-22T16:10:42.874Z,11.45
2022-08-22T16:13:38.166Z,6.82
2022-08-22T16:16:35.541Z,7.45
2022-08-22T16:19:19.750Z,7.05
2022-08-22T16:22:12.382Z,7.20
2022-08-22T16:25:10.843Z,7.47
2022-08-22T16:27:58.888Z,6.32
2022-08-22T16:30:36.472Z,6.80
2022-08-22T16:33:18.294Z,6.47
2022-08-22T16:36:43.089Z,6.82
2022-08-22T16:39:38.720Z,6.18
2022-08-22T16:42:35.423Z,7.05
2022-08-22T16:45:16.788Z,10.60
2022-08-22T16:47:56.711Z,6.20
2022-08-22T16:50:37.368Z,6.30
2022-08-22T16:53:33.297Z,6.22
2022-08-22T16:56:25.131Z,6.10
2022-08-22T16:59:23.724Z,5.38
2022-08-22T17:02:16.509Z,7.35
2022-08-22T17:05:04.439Z,6.20
2022-08-22T17:07:51.926Z,6.60
2022-08-22T17:10:43.418Z,6.45
2022-08-22T17:13:27.688Z,7.55
2022-08-22T17:16:14.440Z,7.78
2022-08-22T17:19:00.665Z,6.20
2022-08-22T17:21:41.693Z,7.55
2022-08-22T17:24:35.226Z,8.20
2022-08-22T17:27:18.800Z,9.65
2022-08-22T17:30:03.151Z,9.20
2022-08-22T17:32:59.865Z,8.70
2022-08-22T17:35:45.643Z,8.50
2022-08-22T17:38:32.524Z,8.18
2022-08-22T17:41:18.751Z,7.50
2022-08-22T17:44:00.811Z,7.97
2022-08-22T17:46:46.001Z,8.90
2022-08-22T17:49:49.715Z,10.32
2022-08-22T17:52:31.319Z,8.35
2022-08-22T17:55:15.724Z,8.45
2022-08-22T17:57:53.296Z,7.13
2022-08-22T18:00:31.516Z,7.07
2022-08-22T18:03:14.484Z,6.60
2022-08-22T18:05:52.702Z,6.95
2022-08-22T18:09:13.349Z,8.63
2022-08-22T18:11:38.816Z,7.00
2022-08-22T18:14:26.043Z,6.88
2022-08-22T18:17:01.130Z,6.57
2022-08-22T18:19:52.828Z,7.00
2022-08-22T18:22:31.859Z,7.00
2022-08-22T18:25:12.381Z,6.90
2022-08-22T18:27:52.351Z,7.45
2022-08-22T18:30:30.704Z,7.70
2022-08-22T18:33:13.277Z,6.90
2022-08-22T18:35:54.732Z,7.38
2022-08-22T18:38:33.587Z,6.45
2022-08-22T18:41:14.702Z,6.82
2022-08-22T18:43:50.034Z,7.30
2022-08-22T18:46:42.688Z,7.10
2022-08-22T18:49:48.425Z,7.28
2022-08-22T18:52:35.558Z,7.55
2022-08-22T18:55:45.053Z,9.13
2022-08-22T18:58:52.535Z,7.20
2022-08-22T19:01:51.054Z,7.38
2022-08-22T19:04:46.203Z,7.88
2022-08-22T19:07:51.219Z,7.00
2022-08-22T19:10:35.615Z,6.93
2022-08-22T19:13:26.893Z,7.03
2022-08-22T19:16:15.557Z,8.27
2022-08-22T19:18:55.916Z,7.65
2022-08-22T19:21:48.688Z,6.88
2022-08-22T19:24:58.407Z,7.93
2022-08-22T19:27:34.634Z,8.68
2022-08-22T19:30:29.440Z,8.05
2022-08-22T19:33:06.901Z,7.47
2022-08-22T19:36:06.801Z,7.10
2022-08-22T19:39:00.164Z,6.88
2022-08-22T19:41:52.717Z,7.03
2022-08-22T19:44:40.092Z,7.88
2022-08-22T19:47:32.801Z,7.75
2022-08-22T19:50:14.877Z,7.43
2022-08-22T19:53:05.220Z,7.15
2022-08-22T19:56:05.847Z,7.45
2022-08-22T19:58:56.165Z,8.00
2022-08-22T20:01:56.464Z,7.35
2022-08-22T20:04:57.443Z,7.22
2022-08-22T20:07:43.792Z,7.93
2022-08-22T20:10:28.343Z,7.45
2022-08-22T20:13:07.623Z,7.47
2022-08-22T20:16:04.759Z,7.45
2022-08-22T20:19:06.683Z,8.27
2022-08-22T20:21:55.053Z,7.72
2022-08-22T20:24:39.991Z,8.45
2022-08-22T20:27:16.510Z,7.30
2022-08-22T20:29:55.891Z,7.35
2022-08-22T20:32:31.629Z,7.60
2022-08-22T20:35:07.795Z,7.25
2022-08-22T20:38:05.685Z,7.32
2022-08-22T20:40:57.027Z,8.05
2022-08-22T20:43:36.816Z,7.65
2022-08-22T20:46:27.557Z,7.72
2022-08-22T20:49:02.227Z,8.32
2022-08-22T20:51:37.273Z,7.88
2022-08-22T20:54:19.930Z,7.32
2022-08-22T20:56:55.990Z,8.48
2022-08-22T20:59:40.214Z,8.35
2022-08-22T21:02:20.362Z,8.32
2022-08-22T21:05:00.802Z,8.10
2022-08-22T21:07:40.301Z,7.28
2022-08-22T21:10:37.266Z,7.55
2022-08-22T21:13:12.998Z,8.35
2022-08-22T21:15:50.227Z,7.45
2022-08-22T21:18:33.137Z,7.93
2022-08-22T21:21:09.936Z,7.63
2022-08-22T21:23:59.934Z,7.85
2022-08-22T21:26:40.863Z,7.75
2022-08-22T21:29:23.610Z,7.68
2022-08-22T21:32:04.589Z,8.05
2022-08-22T21:34:43.457Z,8.25
2022-08-22T21:37:19.514Z,7.75
2022-08-22T21:40:01.561Z,8.18
2022-08-22T21:42:38.717Z,7.80
2022-08-22T21:45:26.451Z,8.60
2022-08-22T21:48:00.486Z,8.23
2022-08-22T21:50:38.581Z,7.80
2022-08-22T21:53:28.742Z,7.68
2022-08-22T21:56:14.831Z,7.55
2022-08-22T21:58:49.621Z,8.77
2022-08-22T22:01:31.485Z,8.10
2022-08-22T22:04:07.971Z,8.63
2022-08-22T22:06:41.861Z,8.20
2022-08-22T22:09:15.671Z,8.40
2022-08-22T22:11:53.603Z,8.15
2022-08-22T22:14:30.699Z,8.52
2022-08-22T22:17:04.370Z,8.07
2022-08-22T22:19:41.917Z,8.40
2022-08-22T22:22:15.811Z,7.95
2022-08-22T22:24:52.093Z,8.13
2022-08-22T22:27:30.880Z,8.27
2022-08-22T22:30:05.319Z,7.63
2022-08-22T22:32:43.195Z,7.95
2022-08-22T22:35:20.963Z,8.45
2022-08-22T22:37:54.614Z,8.05
2022-08-22T22:40:28.397Z,7.63
2022-08-22T22:43:04.039Z,8.13
2022-08-22T22:45:39.952Z,7.82
2022-08-22T22:48:23.826Z,8.27
2022-08-22T22:50:59.587Z,8.18
2022-08-22T22:53:40.132Z,9.10
2022-08-22T22:56:16.561Z,7.78
2022-08-22T22:58:59.289Z,8.43
2022-08-22T23:01:38.223Z,7.78
2022-08-22T23:04:16.706Z,8.68
2022-08-22T23:06:50.303Z,7.75
2022-08-22T23:09:37.994Z,7.53
2022-08-22T23:12:17.932Z,7.63
2022-08-22T23:14:57.312Z,9.25
2022-08-22T23:17:31.037Z,7.88
2022-08-22T23:20:05.836Z,8.32
2022-08-22T23:22:41.678Z,8.32
2022-08-22T23:25:15.415Z,8.25
2022-08-22T23:27:52.572Z,8.60
2022-08-22T23:30:27.724Z,8.13
2022-08-22T23:33:03.989Z,8.77
2022-08-22T23:35:37.616Z,8.77
2022-08-22T23:38:11.821Z,9.05
2022-08-22T23:40:48.229Z,9.18
2022-08-22T23:43:22.010Z,9.10
2022-08-22T23:45:57.033Z,9.02
2022-08-22T23:48:33.353Z,9.23
2022-08-22T23:51:07.853Z,9.15
2022-08-22T23:53:41.787Z,9.05
2022-08-22T23:56:19.755Z,8.75
2022-08-22T23:58:53.675Z,8.70
